Terminal Aerodrome Forecast
Issued by NWS

Current Version | Previous Version | Text Only | Print | Product List | Glossary On
Versions: 1 2 3 4 5 6 7 8 9 10 11 12 13 14 15 16 17 18
000
FTUS41 KGYX 191120
TAFRKD
TAF
KRKD 191120Z 1912/2012 26005KT P6SM BKN050
      TEMPO 1916/1920 4SM -SHRA OVC025
     FM200300 30004KT P6SM OVC030
      AMD LTD TO CLD VIS AND WIND=

USA.gov is the U.S. government's official web portal to all federal, state and local government web resources and services.